createdAt,value
2023-03-03T00:00:55.860Z,1016.59
2023-03-03T00:01:55.919Z,1016.60
2023-03-03T00:02:55.791Z,1016.67
2023-03-03T00:03:55.765Z,1016.70
2023-03-03T00:04:55.732Z,1016.67
2023-03-03T00:05:55.703Z,1016.71
2023-03-03T00:06:55.670Z,1016.70
2023-03-03T00:07:55.640Z,1016.66
2023-03-03T00:08:55.622Z,1016.70
2023-03-03T00:09:55.587Z,1016.69
2023-03-03T00:10:55.591Z,1016.67
2023-03-03T00:11:55.516Z,1016.66
2023-03-03T00:12:55.484Z,1016.63
2023-03-03T00:13:55.456Z,1016.63
2023-03-03T00:14:55.448Z,1016.65
2023-03-03T00:15:55.408Z,1016.66
2023-03-03T00:16:55.360Z,1016.62
2023-03-03T00:17:55.345Z,1016.62
2023-03-03T00:18:55.298Z,1016.63
2023-03-03T00:19:55.277Z,1016.61
2023-03-03T00:20:55.246Z,1016.65
2023-03-03T00:21:55.208Z,1016.63
2023-03-03T00:22:55.176Z,1016.61
2023-03-03T00:23:55.170Z,1016.58
2023-03-03T00:24:55.115Z,1016.59
2023-03-03T00:25:55.087Z,1016.62
2023-03-03T00:26:55.050Z,1016.65
2023-03-03T00:27:55.023Z,1016.65
2023-03-03T00:28:54.990Z,1016.64
2023-03-03T00:29:54.968Z,1016.62
2023-03-03T00:30:54.970Z,1016.67
2023-03-03T00:31:54.922Z,1016.64
2023-03-03T00:32:54.865Z,1016.69
2023-03-03T00:33:54.980Z,1016.71
2023-03-03T00:34:54.806Z,1016.72
2023-03-03T00:35:54.832Z,1016.77
2023-03-03T00:36:54.742Z,1016.81
2023-03-03T00:37:54.713Z,1016.77
2023-03-03T00:38:54.680Z,1016.76
2023-03-03T00:39:54.651Z,1016.74
2023-03-03T00:40:54.686Z,1016.71
2023-03-03T00:41:54.593Z,1016.74
2023-03-03T00:42:54.561Z,1016.73
2023-03-03T00:43:54.536Z,1016.72
2023-03-03T00:44:54.495Z,1016.73
2023-03-03T00:45:54.555Z,1016.70
2023-03-03T00:46:54.460Z,1016.71
2023-03-03T00:47:54.402Z,1016.69
2023-03-03T00:48:54.369Z,1016.70
2023-03-03T00:49:54.367Z,1016.72
2023-03-03T00:50:54.312Z,1016.71
2023-03-03T00:51:54.288Z,1016.71
2023-03-03T00:52:54.248Z,1016.72
2023-03-03T00:53:54.214Z,1016.74
2023-03-03T00:54:54.181Z,1016.73
2023-03-03T00:55:54.164Z,1016.75
2023-03-03T00:56:54.134Z,1016.68
2023-03-03T00:57:54.118Z,1016.63
2023-03-03T00:58:54.057Z,1016.59
2023-03-03T00:59:54.026Z,1016.56
2023-03-03T01:00:54.005Z,1016.54
2023-03-03T01:01:53.996Z,1016.57
2023-03-03T01:02:53.982Z,1016.51
2023-03-03T01:03:53.921Z,1016.49
2023-03-03T01:04:53.874Z,1016.49
2023-03-03T01:05:53.845Z,1016.50
2023-03-03T01:06:53.810Z,1016.51
2023-03-03T01:07:53.786Z,1016.56
2023-03-03T01:08:53.746Z,1016.61
2023-03-03T01:09:53.721Z,1016.53
2023-03-03T01:10:53.689Z,1016.56
2023-03-03T01:11:53.660Z,1016.59
2023-03-03T01:12:53.623Z,1016.58
2023-03-03T01:13:53.673Z,1016.54
2023-03-03T01:14:53.581Z,1016.60
2023-03-03T01:15:53.614Z,1016.60
2023-03-03T01:16:53.523Z,1016.61
2023-03-03T01:17:53.480Z,1016.61
2023-03-03T01:18:53.455Z,1016.65
2023-03-03T01:19:53.408Z,1016.62
2023-03-03T01:20:53.420Z,1016.58
2023-03-03T01:21:53.379Z,1016.56
2023-03-03T01:22:53.366Z,1016.53
2023-03-03T01:23:53.341Z,1016.49
2023-03-03T01:24:53.251Z,1016.51
2023-03-03T01:25:53.236Z,1016.53
2023-03-03T01:26:53.190Z,1016.55
2023-03-03T01:27:53.159Z,1016.57
2023-03-03T01:28:53.125Z,1016.55
2023-03-03T01:29:53.097Z,1016.56
2023-03-03T01:30:53.164Z,1016.57
2023-03-03T01:31:53.093Z,1016.56
2023-03-03T01:32:53.006Z,1016.52
2023-03-03T01:33:52.974Z,1016.53
2023-03-03T01:34:52.965Z,1016.50
2023-03-03T01:35:52.965Z,1016.47
2023-03-03T01:36:52.881Z,1016.51
2023-03-03T01:37:52.852Z,1016.53
2023-03-03T01:38:52.820Z,1016.58
2023-03-03T01:39:52.808Z,1016.54
2023-03-03T01:40:52.761Z,1016.54
2023-03-03T01:41:52.728Z,1016.48
2023-03-03T01:42:52.715Z,1016.50
2023-03-03T01:43:52.664Z,1016.46
2023-03-03T01:44:52.642Z,1016.46
2023-03-03T01:45:52.602Z,1016.44
2023-03-03T01:46:52.630Z,1016.47
2023-03-03T01:47:52.541Z,1016.46
2023-03-03T01:48:52.514Z,1016.43
2023-03-03T01:49:52.505Z,1016.45
2023-03-03T01:50:52.472Z,1016.48
2023-03-03T01:51:52.441Z,1016.51
2023-03-03T01:52:52.395Z,1016.55
2023-03-03T01:53:52.357Z,1016.58
2023-03-03T01:54:52.333Z,1016.61
2023-03-03T01:55:52.296Z,1016.58
2023-03-03T01:56:52.266Z,1016.57
2023-03-03T01:57:52.237Z,1016.59
2023-03-03T01:58:52.205Z,1016.59
2023-03-03T01:59:52.185Z,1016.57
2023-03-03T02:00:52.151Z,1016.52
2023-03-03T02:01:52.211Z,1016.53
2023-03-03T02:02:52.190Z,1016.52
2023-03-03T02:03:52.053Z,1016.51
2023-03-03T02:04:52.037Z,1016.47
2023-03-03T02:05:51.989Z,1016.41
2023-03-03T02:06:51.983Z,1016.39
2023-03-03T02:07:51.930Z,1016.42
2023-03-03T02:08:51.900Z,1016.44
2023-03-03T02:09:51.864Z,1016.46
2023-03-03T02:10:51.845Z,1016.46
2023-03-03T02:11:51.811Z,1016.45
2023-03-03T02:12:51.776Z,1016.43
2023-03-03T02:13:51.752Z,1016.46
2023-03-03T02:14:51.718Z,1016.47
2023-03-03T02:15:51.712Z,1016.49
2023-03-03T02:16:51.658Z,1016.45
2023-03-03T02:17:51.625Z,1016.49
2023-03-03T02:18:51.597Z,1016.50
2023-03-03T02:19:51.567Z,1016.55
2023-03-03T02:20:51.539Z,1016.61
2023-03-03T02:21:51.509Z,1016.55
2023-03-03T02:22:51.512Z,1016.54
2023-03-03T02:23:51.453Z,1016.54
2023-03-03T02:24:51.417Z,1016.53
2023-03-03T02:25:51.384Z,1016.54
2023-03-03T02:26:51.354Z,1016.53
2023-03-03T02:27:51.327Z,1016.50
2023-03-03T02:28:51.296Z,1016.45
2023-03-03T02:29:51.264Z,1016.47
2023-03-03T02:30:51.237Z,1016.43
2023-03-03T02:31:51.296Z,1016.49
2023-03-03T02:32:51.174Z,1016.51
2023-03-03T02:33:51.140Z,1016.46
2023-03-03T02:34:51.130Z,1016.49
2023-03-03T02:35:51.103Z,1016.51
2023-03-03T02:36:51.050Z,1016.49
2023-03-03T02:37:51.020Z,1016.51
2023-03-03T02:38:51.008Z,1016.48
2023-03-03T02:39:50.957Z,1016.47
2023-03-03T02:40:50.944Z,1016.48
2023-03-03T02:41:50.896Z,1016.44
2023-03-03T02:42:50.872Z,1016.48
2023-03-03T02:43:50.839Z,1016.52
2023-03-03T02:44:50.808Z,1016.51
2023-03-03T02:45:50.820Z,1016.54
2023-03-03T02:46:50.743Z,1016.49
2023-03-03T02:47:50.712Z,1016.55
2023-03-03T02:48:50.682Z,1016.54
2023-03-03T02:49:50.651Z,1016.53
2023-03-03T02:50:50.621Z,1016.53
2023-03-03T02:51:50.589Z,1016.57
2023-03-03T02:52:50.558Z,1016.59
2023-03-03T02:53:50.523Z,1016.61
2023-03-03T02:54:50.513Z,1016.59
2023-03-03T02:55:50.461Z,1016.63
2023-03-03T02:56:50.438Z,1016.64
2023-03-03T02:57:50.403Z,1016.58
2023-03-03T02:58:50.372Z,1016.62
2023-03-03T02:59:50.340Z,1016.66
2023-03-03T03:00:50.352Z,1016.64
2023-03-03T03:01:50.289Z,1016.62
2023-03-03T03:02:50.249Z,1016.58
2023-03-03T03:03:50.308Z,1016.58
2023-03-03T03:04:50.197Z,1016.55
2023-03-03T03:05:50.155Z,1016.57
2023-03-03T03:06:50.126Z,1016.57
2023-03-03T03:07:50.096Z,1016.59
2023-03-03T03:08:50.060Z,1016.56
2023-03-03T03:09:50.032Z,1016.62
2023-03-03T03:10:50.021Z,1016.58
2023-03-03T03:11:49.973Z,1016.61
2023-03-03T03:12:49.937Z,1016.61
2023-03-03T03:13:49.903Z,1016.62
2023-03-03T03:14:49.898Z,1016.56
2023-03-03T03:15:49.842Z,1016.56
2023-03-03T03:16:49.847Z,1016.56
2023-03-03T03:17:49.784Z,1016.58
2023-03-03T03:18:49.750Z,1016.59
2023-03-03T03:19:49.718Z,1016.58
2023-03-03T03:20:49.692Z,1016.58
2023-03-03T03:21:49.656Z,1016.56
2023-03-03T03:22:49.628Z,1016.56
2023-03-03T03:23:49.599Z,1016.53
2023-03-03T03:24:49.568Z,1016.54
2023-03-03T03:25:49.540Z,1016.53
2023-03-03T03:26:49.528Z,1016.58
2023-03-03T03:27:49.476Z,1016.57
2023-03-03T03:28:49.476Z,1016.57
2023-03-03T03:29:49.413Z,1016.55
2023-03-03T03:30:49.465Z,1016.55
2023-03-03T03:31:49.357Z,1016.56
2023-03-03T03:32:49.344Z,1016.57
2023-03-03T03:33:49.303Z,1016.59
2023-03-03T03:34:49.267Z,1016.58
2023-03-03T03:35:49.292Z,1016.58
2023-03-03T03:36:49.203Z,1016.59
2023-03-03T03:37:49.162Z,1016.60
2023-03-03T03:38:49.135Z,1016.64
2023-03-03T03:39:49.096Z,1016.63
2023-03-03T03:40:49.069Z,1016.67
2023-03-03T03:41:49.038Z,1016.64
2023-03-03T03:42:49.020Z,1016.61
2023-03-03T03:43:48.992Z,1016.60
2023-03-03T03:44:48.949Z,1016.56
2023-03-03T03:45:48.942Z,1016.56
2023-03-03T03:46:48.880Z,1016.55
2023-03-03T03:47:48.848Z,1016.59
2023-03-03T03:48:48.820Z,1016.60
2023-03-03T03:49:48.784Z,1016.57
2023-03-03T03:50:48.755Z,1016.59
2023-03-03T03:51:48.723Z,1016.59
2023-03-03T03:52:48.694Z,1016.57
2023-03-03T03:53:48.668Z,1016.57
2023-03-03T03:54:48.632Z,1016.58
2023-03-03T03:55:48.604Z,1016.55
2023-03-03T03:56:48.571Z,1016.58
2023-03-03T03:57:48.551Z,1016.57
2023-03-03T03:58:48.528Z,1016.56
2023-03-03T03:59:48.481Z,1016.58
2023-03-03T04:00:48.458Z,1016.57
2023-03-03T04:01:48.416Z,1016.54
2023-03-03T04:02:48.518Z,1016.53
2023-03-03T04:03:48.355Z,1016.59
2023-03-03T04:04:48.326Z,1016.63
2023-03-03T04:05:48.290Z,1016.63
2023-03-03T04:06:48.264Z,1016.61
2023-03-03T04:07:48.230Z,1016.58
2023-03-03T04:08:48.200Z,1016.58
2023-03-03T04:09:48.168Z,1016.55
2023-03-03T04:10:48.136Z,1016.55
2023-03-03T04:11:48.107Z,1016.57
2023-03-03T04:12:48.078Z,1016.52
2023-03-03T04:13:48.041Z,1016.55
2023-03-03T04:14:48.030Z,1016.58
2023-03-03T04:15:48.032Z,1016.60
2023-03-03T04:16:47.952Z,1016.57
2023-03-03T04:17:47.922Z,1016.59
2023-03-03T04:18:47.888Z,1016.53
2023-03-03T04:19:47.858Z,1016.61
2023-03-03T04:20:47.830Z,1016.55
2023-03-03T04:21:47.792Z,1016.59
2023-03-03T04:22:47.760Z,1016.61
2023-03-03T04:23:47.732Z,1016.58
2023-03-03T04:24:47.706Z,1016.59
2023-03-03T04:25:47.666Z,1016.62
2023-03-03T04:26:47.639Z,1016.66
2023-03-03T04:27:47.605Z,1016.67
2023-03-03T04:28:47.581Z,1016.66
2023-03-03T04:29:47.550Z,1016.68
2023-03-03T04:30:47.565Z,1016.66
2023-03-03T04:31:47.482Z,1016.70
2023-03-03T04:32:47.453Z,1016.62
2023-03-03T04:33:47.420Z,1016.59
2023-03-03T04:34:52.968Z,1016.63
2023-03-03T04:35:47.412Z,1016.59
2023-03-03T04:36:47.328Z,1016.60
2023-03-03T04:37:47.294Z,1016.60
2023-03-03T04:38:47.265Z,1016.60
2023-03-03T04:39:47.228Z,1016.55
2023-03-03T04:40:47.207Z,1016.53
2023-03-03T04:41:47.178Z,1016.55
2023-03-03T04:42:47.140Z,1016.56
2023-03-03T04:43:47.110Z,1016.61
2023-03-03T04:44:47.078Z,1016.62
2023-03-03T04:45:47.222Z,1016.65
2023-03-03T04:46:47.039Z,1016.65
2023-03-03T04:47:46.982Z,1016.69
2023-03-03T04:48:46.949Z,1016.64
2023-03-03T04:49:46.936Z,1016.66
2023-03-03T04:50:46.897Z,1016.64
2023-03-03T04:51:46.866Z,1016.66
2023-03-03T04:52:46.823Z,1016.68
2023-03-03T04:53:46.798Z,1016.62
2023-03-03T04:54:46.783Z,1016.66
2023-03-03T04:55:46.728Z,1016.60
2023-03-03T04:56:46.707Z,1016.62
2023-03-03T04:57:46.668Z,1016.62
2023-03-03T04:58:46.649Z,1016.62
2023-03-03T04:59:46.606Z,1016.61
2023-03-03T05:00:46.575Z,1016.64
2023-03-03T05:01:46.621Z,1016.60
2023-03-03T05:02:46.536Z,1016.60
2023-03-03T05:03:46.477Z,1016.58
2023-03-03T05:04:46.523Z,1016.57
2023-03-03T05:05:46.416Z,1016.59
2023-03-03T05:06:46.378Z,1016.63
2023-03-03T05:07:46.375Z,1016.63
2023-03-03T05:08:46.325Z,1016.62
2023-03-03T05:09:46.295Z,1016.66
2023-03-03T05:10:46.261Z,1016.67
2023-03-03T05:11:46.220Z,1016.67
2023-03-03T05:12:46.194Z,1016.70
2023-03-03T05:13:46.154Z,1016.71
2023-03-03T05:14:46.176Z,1016.71
2023-03-03T05:15:46.192Z,1016.75
2023-03-03T05:16:46.069Z,1016.74
2023-03-03T05:17:46.056Z,1016.77
2023-03-03T05:18:46.040Z,1016.79
2023-03-03T05:19:45.979Z,1016.72
2023-03-03T05:20:45.940Z,1016.74
2023-03-03T05:21:45.908Z,1016.76
2023-03-03T05:22:45.874Z,1016.75
2023-03-03T05:23:45.850Z,1016.78
2023-03-03T05:24:45.818Z,1016.73
2023-03-03T05:25:45.795Z,1016.77
2023-03-03T05:26:45.766Z,1016.77
2023-03-03T05:27:45.767Z,1016.78
2023-03-03T05:28:45.686Z,1016.79
2023-03-03T05:29:45.651Z,1016.80
2023-03-03T05:30:45.623Z,1016.82
2023-03-03T05:31:45.932Z,1016.73
2023-03-03T05:32:45.559Z,1016.74
2023-03-03T05:33:45.527Z,1016.73
2023-03-03T05:34:45.515Z,1016.76
2023-03-03T05:35:45.537Z,1016.76
2023-03-03T05:36:45.436Z,1016.71
2023-03-03T05:37:45.400Z,1016.77
2023-03-03T05:38:45.372Z,1016.76
2023-03-03T05:39:45.339Z,1016.75
2023-03-03T05:40:45.306Z,1016.73
2023-03-03T05:41:45.278Z,1016.78
2023-03-03T05:42:45.334Z,1016.78
2023-03-03T05:43:45.211Z,1016.79
2023-03-03T05:44:45.185Z,1016.80
2023-03-03T05:45:45.148Z,1016.83
2023-03-03T05:46:45.179Z,1016.85
2023-03-03T05:47:45.087Z,1016.85
2023-03-03T05:48:45.062Z,1016.85
2023-03-03T05:49:45.027Z,1016.85
2023-03-03T05:50:45.014Z,1016.83
2023-03-03T05:51:44.979Z,1016.86
2023-03-03T05:52:44.931Z,1016.88
2023-03-03T05:53:44.900Z,1016.82
2023-03-03T05:54:44.874Z,1016.82
2023-03-03T05:55:44.841Z,1016.75
2023-03-03T05:56:44.809Z,1016.79
2023-03-03T05:57:44.778Z,1016.83
2023-03-03T05:58:44.750Z,1016.86
2023-03-03T05:59:44.716Z,1016.84
2023-03-03T06:00:44.683Z,1016.85
2023-03-03T06:01:44.734Z,1016.86
2023-03-03T06:02:44.683Z,1016.83
2023-03-03T06:03:44.589Z,1016.85
2023-03-03T06:04:44.558Z,1016.88
2023-03-03T06:05:44.562Z,1016.91
2023-03-03T06:06:44.552Z,1016.91
2023-03-03T06:07:44.470Z,1016.92
2023-03-03T06:08:44.432Z,1016.89
2023-03-03T06:09:44.402Z,1016.96
2023-03-03T06:10:44.377Z,1016.96
2023-03-03T06:11:44.343Z,1017.00
2023-03-03T06:12:44.310Z,1016.99
2023-03-03T06:13:44.278Z,1016.94
2023-03-03T06:14:44.244Z,1016.96
2023-03-03T06:15:44.274Z,1016.94
2023-03-03T06:16:44.268Z,1016.90
2023-03-03T06:17:44.153Z,1016.99
2023-03-03T06:18:44.117Z,1016.98
2023-03-03T06:19:44.091Z,1016.99
2023-03-03T06:20:44.057Z,1017.01
2023-03-03T06:21:44.026Z,1017.06
2023-03-03T06:22:44.010Z,1017.06
2023-03-03T06:23:43.964Z,1017.07
2023-03-03T06:24:43.929Z,1017.06
2023-03-03T06:25:43.902Z,1017.11
2023-03-03T06:26:43.870Z,1017.09
2023-03-03T06:27:43.835Z,1017.05
2023-03-03T06:28:43.802Z,1017.07
2023-03-03T06:29:43.771Z,1017.12
2023-03-03T06:30:43.756Z,1017.12
2023-03-03T06:31:43.806Z,1017.11
2023-03-03T06:32:43.732Z,1017.12
2023-03-03T06:33:43.643Z,1017.09
2023-03-03T06:34:43.609Z,1017.11
2023-03-03T06:35:43.589Z,1017.11
2023-03-03T06:36:43.547Z,1017.16
2023-03-03T06:37:43.517Z,1017.22
2023-03-03T06:38:43.505Z,1017.21
2023-03-03T06:39:43.451Z,1017.20
2023-03-03T06:40:43.422Z,1017.18
2023-03-03T06:41:43.388Z,1017.23
2023-03-03T06:42:43.357Z,1017.22
2023-03-03T06:43:43.324Z,1017.22
2023-03-03T06:44:43.302Z,1017.23
2023-03-03T06:45:43.388Z,1017.26
2023-03-03T06:46:43.233Z,1017.25
2023-03-03T06:47:43.208Z,1017.22
2023-03-03T06:48:43.170Z,1017.29
2023-03-03T06:49:43.138Z,1017.28
2023-03-03T06:50:43.105Z,1017.25
2023-03-03T06:51:43.073Z,1017.28
2023-03-03T06:52:43.042Z,1017.28
2023-03-03T06:53:43.014Z,1017.34
2023-03-03T06:54:42.994Z,1017.32
2023-03-03T06:55:42.945Z,1017.30
2023-03-03T06:56:42.936Z,1017.38
2023-03-03T06:57:42.889Z,1017.32
2023-03-03T06:58:42.848Z,1017.33
2023-03-03T06:59:42.834Z,1017.34
2023-03-03T07:00:42.801Z,1017.38
2023-03-03T07:01:42.760Z,1017.39
2023-03-03T07:02:42.740Z,1017.35
2023-03-03T07:03:42.697Z,1017.39
2023-03-03T07:04:42.666Z,1017.42
2023-03-03T07:05:42.636Z,1017.38
2023-03-03T07:06:42.605Z,1017.45
2023-03-03T07:07:42.578Z,1017.45
2023-03-03T07:08:42.552Z,1017.48
2023-03-03T07:09:42.517Z,1017.45
2023-03-03T07:10:42.497Z,1017.46
2023-03-03T07:11:42.450Z,1017.42
2023-03-03T07:12:42.419Z,1017.44
2023-03-03T07:13:42.393Z,1017.47
2023-03-03T07:14:42.372Z,1017.51
2023-03-03T07:15:42.333Z,1017.53
2023-03-03T07:16:42.391Z,1017.55
2023-03-03T07:17:42.264Z,1017.55
2023-03-03T07:18:42.236Z,1017.57
2023-03-03T07:19:42.203Z,1017.51
2023-03-03T07:20:42.169Z,1017.48
2023-03-03T07:21:42.148Z,1017.52
2023-03-03T07:22:42.106Z,1017.47
2023-03-03T07:23:42.077Z,1017.53
2023-03-03T07:24:42.053Z,1017.51
2023-03-03T07:25:42.013Z,1017.49
2023-03-03T07:26:41.999Z,1017.51
2023-03-03T07:27:41.951Z,1017.56
2023-03-03T07:28:41.920Z,1017.58
2023-03-03T07:29:41.893Z,1017.57
2023-03-03T07:30:41.892Z,1017.58
2023-03-03T07:31:43.045Z,1017.57
2023-03-03T07:32:41.801Z,1017.58
2023-03-03T07:33:41.761Z,1017.61
2023-03-03T07:34:41.728Z,1017.63
2023-03-03T07:35:41.752Z,1017.63
2023-03-03T07:36:41.666Z,1017.66
2023-03-03T07:37:41.639Z,1017.68
2023-03-03T07:38:41.603Z,1017.66
2023-03-03T07:39:41.575Z,1017.72
2023-03-03T07:40:41.613Z,1017.69
2023-03-03T07:41:41.512Z,1017.75
2023-03-03T07:42:41.519Z,1017.73
2023-03-03T07:43:41.445Z,1017.76
2023-03-03T07:44:41.422Z,1017.77
2023-03-03T07:45:41.426Z,1017.79
2023-03-03T07:46:41.381Z,1017.80
2023-03-03T07:47:41.325Z,1017.82
2023-03-03T07:48:41.287Z,1017.80
2023-03-03T07:49:41.259Z,1017.83
2023-03-03T07:50:41.319Z,1017.83
2023-03-03T07:51:41.198Z,1017.85
2023-03-03T07:52:41.163Z,1017.91
2023-03-03T07:53:41.138Z,1017.91
2023-03-03T07:54:41.101Z,1017.90
2023-03-03T07:55:41.076Z,1017.88
2023-03-03T07:56:41.042Z,1017.91
2023-03-03T07:57:41.016Z,1017.92
2023-03-03T07:58:40.994Z,1017.93
2023-03-03T07:59:40.946Z,1017.98
2023-03-03T08:00:40.935Z,1018.02
2023-03-03T08:01:40.891Z,1018.06
2023-03-03T08:02:40.880Z,1018.08
2023-03-03T08:03:40.819Z,1018.08
2023-03-03T08:04:40.948Z,1018.08
2023-03-03T08:05:40.758Z,1018.04
2023-03-03T08:06:40.724Z,1018.10
2023-03-03T08:07:40.695Z,1018.08
2023-03-03T08:08:40.661Z,1018.07
2023-03-03T08:09:40.650Z,1018.12
2023-03-03T08:10:42.451Z,1018.11
2023-03-03T08:11:40.566Z,1018.15
2023-03-03T08:12:40.528Z,1018.15
2023-03-03T08:13:40.499Z,1018.14
2023-03-03T08:14:40.480Z,1018.19
2023-03-03T08:15:40.526Z,1018.13
2023-03-03T08:16:40.400Z,1018.17
2023-03-03T08:17:40.376Z,1018.15
2023-03-03T08:18:40.347Z,1018.17
2023-03-03T08:19:40.712Z,1018.21
2023-03-03T08:20:40.272Z,1018.21
2023-03-03T08:21:40.240Z,1018.21
2023-03-03T08:22:40.207Z,1018.21
2023-03-03T08:23:40.177Z,1018.21
2023-03-03T08:24:40.152Z,1018.21
2023-03-03T08:25:40.116Z,1018.25
2023-03-03T08:26:40.082Z,1018.26
2023-03-03T08:27:40.061Z,1018.25
2023-03-03T08:28:40.020Z,1018.25
2023-03-03T08:29:39.984Z,1018.24
2023-03-03T08:30:39.976Z,1018.29
2023-03-03T08:31:41.987Z,1018.26
2023-03-03T08:32:40.025Z,1018.27
2023-03-03T08:33:39.861Z,1018.29
2023-03-03T08:34:39.837Z,1018.21
2023-03-03T08:35:39.888Z,1018.25
2023-03-03T08:36:39.766Z,1018.22
2023-03-03T08:37:39.733Z,1018.19
2023-03-03T08:38:39.703Z,1018.20
2023-03-03T08:39:39.672Z,1018.18
2023-03-03T08:40:39.638Z,1018.17
2023-03-03T08:41:39.607Z,1018.19
2023-03-03T08:42:39.572Z,1018.19
2023-03-03T08:43:39.562Z,1018.19
2023-03-03T08:44:39.514Z,1018.17
2023-03-03T08:45:39.482Z,1018.12
2023-03-03T08:46:39.510Z,1018.15
2023-03-03T08:47:39.420Z,1018.12
2023-03-03T08:48:39.392Z,1018.11
2023-03-03T08:49:39.361Z,1018.13
2023-03-03T08:50:39.322Z,1018.16
2023-03-03T08:51:39.298Z,1018.16
2023-03-03T08:52:39.262Z,1018.14
2023-03-03T08:53:39.235Z,1018.12
2023-03-03T08:54:39.199Z,1018.13
2023-03-03T08:55:39.176Z,1018.17
2023-03-03T08:56:39.138Z,1018.12
2023-03-03T08:57:39.107Z,1018.14
2023-03-03T08:58:40.770Z,1018.13
2023-03-03T08:59:39.067Z,1018.14
2023-03-03T09:00:39.017Z,1018.13
2023-03-03T09:01:39.014Z,1018.16
2023-03-03T09:02:38.971Z,1018.13
2023-03-03T09:03:38.922Z,1018.20
2023-03-03T09:04:38.985Z,1018.11
2023-03-03T09:05:38.861Z,1018.11
2023-03-03T09:06:38.828Z,1018.14
2023-03-03T09:07:38.798Z,1018.18
2023-03-03T09:08:38.771Z,1018.20
2023-03-03T09:09:38.745Z,1018.20
2023-03-03T09:10:38.703Z,1018.18
2023-03-03T09:11:38.672Z,1018.25
2023-03-03T09:12:38.647Z,1018.23
2023-03-03T09:13:38.616Z,1018.26
2023-03-03T09:14:38.577Z,1018.26
2023-03-03T09:15:38.550Z,1018.26
2023-03-03T09:16:38.520Z,1018.29
2023-03-03T09:17:38.488Z,1018.26
2023-03-03T09:18:38.497Z,1018.29
2023-03-03T09:19:38.422Z,1018.29
2023-03-03T09:20:38.393Z,1018.28
2023-03-03T09:21:38.363Z,1018.30
2023-03-03T09:22:38.328Z,1018.34
2023-03-03T09:23:38.301Z,1018.29
2023-03-03T09:24:38.281Z,1018.31
2023-03-03T09:25:39.763Z,1018.34
2023-03-03T09:26:38.203Z,1018.31
2023-03-03T09:27:38.181Z,1018.27
2023-03-03T09:28:38.153Z,1018.27
2023-03-03T09:29:38.108Z,1018.24
2023-03-03T09:30:38.211Z,1018.29
2023-03-03T09:31:38.218Z,1018.32
2023-03-03T09:32:38.059Z,1018.29
2023-03-03T09:33:37.988Z,1018.31
2023-03-03T09:34:37.976Z,1018.30
2023-03-03T09:35:38.051Z,1018.32
2023-03-03T09:36:37.901Z,1018.32
2023-03-03T09:37:37.863Z,1018.32
2023-03-03T09:38:37.827Z,1018.35
2023-03-03T09:39:37.810Z,1018.35
2023-03-03T09:40:37.765Z,1018.35
2023-03-03T09:41:37.747Z,1018.31
2023-03-03T09:42:37.717Z,1018.33
2023-03-03T09:43:38.138Z,1018.36
2023-03-03T09:44:37.660Z,1018.39
2023-03-03T09:45:37.656Z,1018.37
2023-03-03T09:46:37.629Z,1018.38
2023-03-03T09:47:37.550Z,1018.40
2023-03-03T09:48:37.514Z,1018.38
2023-03-03T09:49:37.492Z,1018.40
2023-03-03T09:50:37.480Z,1018.41
2023-03-03T09:51:37.426Z,1018.42
2023-03-03T09:52:37.397Z,1018.43
2023-03-03T09:53:37.363Z,1018.42
2023-03-03T09:54:37.329Z,1018.44
2023-03-03T09:55:37.363Z,1018.46
2023-03-03T09:56:37.271Z,1018.45
2023-03-03T09:57:37.247Z,1018.45
2023-03-03T09:58:37.212Z,1018.44
2023-03-03T09:59:37.179Z,1018.46
2023-03-03T10:00:37.147Z,1018.42
2023-03-03T10:01:37.118Z,1018.44
2023-03-03T10:02:37.161Z,1018.51
2023-03-03T10:03:37.199Z,1018.56
2023-03-03T10:04:37.021Z,1018.53
2023-03-03T10:05:36.991Z,1018.53
2023-03-03T10:06:37.050Z,1018.51
2023-03-03T10:07:36.930Z,1018.55
2023-03-03T10:08:36.899Z,1018.54
2023-03-03T10:09:36.879Z,1018.55
2023-03-03T10:10:36.835Z,1018.51
2023-03-03T10:11:36.808Z,1018.54
2023-03-03T10:12:36.778Z,1018.59
2023-03-03T10:13:36.746Z,1018.58
2023-03-03T10:14:36.715Z,1018.61
2023-03-03T10:15:36.688Z,1018.64
2023-03-03T10:16:36.693Z,1018.63
2023-03-03T10:17:36.619Z,1018.63
2023-03-03T10:18:36.606Z,1018.64
2023-03-03T10:19:36.568Z,1018.61
2023-03-03T10:20:49.202Z,1018.63
2023-03-03T10:21:36.500Z,1018.60
2023-03-03T10:22:36.489Z,1018.64
2023-03-03T10:23:36.442Z,1018.58
2023-03-03T10:24:36.409Z,1018.60
2023-03-03T10:25:36.382Z,1018.62
2023-03-03T10:26:44.642Z,1018.60
2023-03-03T10:27:36.322Z,1018.64
2023-03-03T10:28:36.288Z,1018.64
2023-03-03T10:29:36.255Z,1018.64
2023-03-03T10:30:42.666Z,1018.64
2023-03-03T10:31:36.233Z,1018.68
2023-03-03T10:32:36.405Z,1018.68
2023-03-03T10:33:36.307Z,1018.67
2023-03-03T10:34:36.106Z,1018.70
2023-03-03T10:35:36.181Z,1018.68
2023-03-03T10:36:36.055Z,1018.70
2023-03-03T10:37:36.062Z,1018.73
2023-03-03T10:38:36.004Z,1018.68
2023-03-03T10:39:35.952Z,1018.68
2023-03-03T10:40:35.929Z,1018.72
2023-03-03T10:41:35.895Z,1018.71
2023-03-03T10:42:35.867Z,1018.66
2023-03-03T10:43:35.831Z,1018.66
2023-03-03T10:44:35.804Z,1018.65
2023-03-03T10:45:35.821Z,1018.68
2023-03-03T10:46:35.754Z,1018.70
2023-03-03T10:47:35.740Z,1018.68
2023-03-03T10:48:36.248Z,1018.68
2023-03-03T10:49:35.650Z,1018.69
2023-03-03T10:50:35.623Z,1018.71
2023-03-03T10:51:35.600Z,1018.70
2023-03-03T10:52:35.563Z,1018.71
2023-03-03T10:53:35.531Z,1018.71
2023-03-03T10:54:35.526Z,1018.72
2023-03-03T10:55:38.309Z,1018.69
2023-03-03T10:56:51.825Z,1018.72
2023-03-03T10:57:35.412Z,1018.71
2023-03-03T10:58:35.443Z,1018.69
2023-03-03T10:59:35.354Z,1018.72
2023-03-03T11:00:35.318Z,1018.72
2023-03-03T11:01:35.310Z,1018.70
2023-03-03T11:02:35.263Z,1018.70
2023-03-03T11:03:35.242Z,1018.71
2023-03-03T11:04:35.267Z,1018.73
2023-03-03T11:05:35.175Z,1018.75
2023-03-03T11:06:35.148Z,1018.74
2023-03-03T11:07:35.131Z,1018.70
2023-03-03T11:08:35.103Z,1018.72
2023-03-03T11:09:35.059Z,1018.70
2023-03-03T11:10:35.037Z,1018.71
2023-03-03T11:11:34.991Z,1018.70
2023-03-03T11:12:34.961Z,1018.76
2023-03-03T11:13:34.932Z,1018.68
2023-03-03T11:14:34.904Z,1018.70
2023-03-03T11:15:34.865Z,1018.69
2023-03-03T11:16:34.862Z,1018.70
2023-03-03T11:17:34.808Z,1018.68
2023-03-03T11:18:34.776Z,1018.69
2023-03-03T11:19:34.752Z,1018.63
2023-03-03T11:20:34.717Z,1018.63
2023-03-03T11:21:34.691Z,1018.61
2023-03-03T11:22:34.655Z,1018.64
2023-03-03T11:23:34.639Z,1018.60
2023-03-03T11:24:34.602Z,1018.65
2023-03-03T11:25:34.578Z,1018.60
2023-03-03T11:26:34.560Z,1018.58
2023-03-03T11:27:34.513Z,1018.60
2023-03-03T11:28:34.476Z,1018.61
2023-03-03T11:29:34.446Z,1018.61
2023-03-03T11:30:34.523Z,1018.57
2023-03-03T11:31:34.386Z,1018.60
2023-03-03T11:32:34.450Z,1018.57
2023-03-03T11:33:34.326Z,1018.55
2023-03-03T11:34:34.299Z,1018.56
2023-03-03T11:35:34.314Z,1018.58
2023-03-03T11:36:35.147Z,1018.51
2023-03-03T11:37:34.202Z,1018.56
2023-03-03T11:38:34.180Z,1018.54
2023-03-03T11:39:34.150Z,1018.53
2023-03-03T11:40:34.118Z,1018.60
2023-03-03T11:41:34.087Z,1018.56
2023-03-03T11:42:34.088Z,1018.52
2023-03-03T11:43:37.337Z,1018.49
2023-03-03T11:44:34.013Z,1018.51
2023-03-03T11:45:34.000Z,1018.49
2023-03-03T11:46:33.937Z,1018.50
2023-03-03T11:47:33.907Z,1018.48
2023-03-03T11:48:33.880Z,1018.45
2023-03-03T11:49:33.847Z,1018.47
2023-03-03T11:50:33.818Z,1018.47
2023-03-03T11:51:33.794Z,1018.42
2023-03-03T11:52:33.758Z,1018.44
2023-03-03T11:53:33.739Z,1018.45
2023-03-03T11:54:33.699Z,1018.45
2023-03-03T11:55:33.678Z,1018.44
2023-03-03T11:56:33.641Z,1018.41
2023-03-03T11:57:33.607Z,1018.35
2023-03-03T11:58:33.606Z,1018.41
2023-03-03T11:59:33.547Z,1018.40
2023-03-03T12:00:33.520Z,1018.43
2023-03-03T12:01:33.486Z,1018.44
2023-03-03T12:02:33.471Z,1018.37
2023-03-03T12:03:33.427Z,1018.39
2023-03-03T12:04:33.403Z,1018.35
2023-03-03T12:05:33.423Z,1018.39